Time;durP1;ratioP1;P1;durP2;ratioP2;P2;SDS_P1;SDS_P2;PMS_P1;PMS_P2;Temp;Humidity;BMP_temperature;BMP_pressure;BME280_temperature;BME280_humidity;BME280_pressure;Samples;Min_cycle;Max_cycle;Signal;HPM_P1;HPM_P2
2021/05/03 00:00:34;;;;;;;;;;;21.10;40.30;;;;;;486976;244;1131;-44
2021/05/03 00:02:35;;;;;;;;;;;21.00;40.30;;;;;;487042;244;1267;-45
2021/05/03 00:04:37;;;;;;;;;;;21.00;40.20;;;;;;486949;244;1181;-45
2021/05/03 00:06:38;;;;;;;;;;;21.10;40.30;;;;;;487020;244;1144;-45
2021/05/03 00:08:39;;;;;;;;;;;21.10;40.20;;;;;;486832;243;1094;-45
2021/05/03 00:10:40;;;;;;;;;;;21.10;40.20;;;;;;487048;244;1202;-45
2021/05/03 00:12:42;;;;;;;;;;;21.10;40.20;;;;;;486881;244;2198;-44
2021/05/03 00:14:43;;;;;;;;;;;21.10;40.20;;;;;;487209;244;1198;-44
2021/05/03 00:16:45;;;;;;;;;;;21.10;40.20;;;;;;487075;243;1088;-44
2021/05/03 00:18:46;;;;;;;;;;;21.10;40.20;;;;;;487073;244;1322;-45
2021/05/03 00:20:47;;;;;;;;;;;21.10;40.20;;;;;;486916;244;1112;-45
2021/05/03 00:22:49;;;;;;;;;;;21.20;40.20;;;;;;487470;244;1082;-45
2021/05/03 00:24:50;;;;;;;;;;;21.20;40.20;;;;;;487715;244;1064;-44
2021/05/03 00:26:51;;;;;;;;;;;21.20;40.20;;;;;;487555;244;1030;-44
2021/05/03 00:28:52;;;;;;;;;;;21.10;40.10;;;;;;487798;244;1057;-45
2021/05/03 00:30:54;;;;;;;;;;;21.20;40.20;;;;;;487234;244;1218;-45
2021/05/03 00:32:55;;;;;;;;;;;21.20;40.10;;;;;;487159;244;2194;-45
2021/05/03 00:34:56;;;;;;;;;;;21.20;40.10;;;;;;487339;243;1089;-45
2021/05/03 00:36:57;;;;;;;;;;;21.20;40.10;;;;;;487384;244;1122;-45
2021/05/03 00:38:59;;;;;;;;;;;21.20;40.10;;;;;;487210;244;1202;-45
2021/05/03 00:41:00;;;;;;;;;;;21.20;40.10;;;;;;487568;244;1384;-44
2021/05/03 00:43:01;;;;;;;;;;;21.20;40.10;;;;;;487293;244;1062;-45
2021/05/03 00:45:03;;;;;;;;;;;21.20;40.10;;;;;;487402;244;1161;-44
2021/05/03 00:47:04;;;;;;;;;;;21.20;40.10;;;;;;487594;244;1160;-44
2021/05/03 00:49:05;;;;;;;;;;;21.20;40.10;;;;;;487442;243;1079;-45
2021/05/03 00:51:06;;;;;;;;;;;21.20;40.00;;;;;;487301;244;1190;-44
2021/05/03 00:53:08;;;;;;;;;;;21.20;40.00;;;;;;487550;244;2142;-45
2021/05/03 00:55:09;;;;;;;;;;;21.20;40.00;;;;;;487507;243;1113;-44
2021/05/03 00:57:10;;;;;;;;;;;21.30;40.00;;;;;;487270;244;1046;-45
2021/05/03 00:59:12;;;;;;;;;;;21.20;40.00;;;;;;487256;244;1103;-44
2021/05/03 01:01:13;;;;;;;;;;;21.30;40.00;;;;;;487283;244;1186;-44
2021/05/03 01:03:14;;;;;;;;;;;21.30;40.00;;;;;;487481;244;1088;-45
2021/05/03 01:05:15;;;;;;;;;;;21.30;40.00;;;;;;487294;243;1064;-44
2021/05/03 01:07:17;;;;;;;;;;;21.30;40.00;;;;;;487467;244;1238;-44
2021/05/03 01:09:18;;;;;;;;;;;21.30;40.00;;;;;;487368;244;1254;-45
2021/05/03 01:11:19;;;;;;;;;;;21.30;40.00;;;;;;487614;244;1138;-44
2021/05/03 01:13:20;;;;;;;;;;;21.30;40.00;;;;;;487393;243;2198;-45
2021/05/03 01:15:24;;;;;;;;;;;21.30;40.00;;;;;;487566;243;1303;-44
2021/05/03 01:17:24;;;;;;;;;;;21.30;40.10;;;;;;487676;244;2346;-44
2021/05/03 01:19:26;;;;;;;;;;;21.30;39.80;;;;;;487327;244;1199;-44
2021/05/03 01:21:27;;;;;;;;;;;21.00;40.50;;;;;;487236;244;1098;-44
2021/05/03 01:23:28;;;;;;;;;;;20.50;41.50;;;;;;487203;244;1068;-44
2021/05/03 01:25:31;;;;;;;;;;;20.20;42.30;;;;;;487259;244;1086;-44
2021/05/03 01:27:30;;;;;;;;;;;20.00;42.90;;;;;;487355;244;1412;-44
2021/05/03 01:29:32;;;;;;;;;;;19.70;43.40;;;;;;487266;244;1069;-44
2021/05/03 01:31:33;;;;;;;;;;;19.60;43.70;;;;;;487235;243;1694;-45
2021/05/03 01:33:34;;;;;;;;;;;19.40;44.00;;;;;;487475;244;2119;-44
2021/05/03 01:35:36;;;;;;;;;;;19.40;44.20;;;;;;487490;244;1056;-44
2021/05/03 01:37:37;;;;;;;;;;;19.30;44.40;;;;;;487528;243;1205;-44
2021/05/03 01:39:38;;;;;;;;;;;19.20;44.50;;;;;;487745;243;1035;-44
2021/05/03 01:41:40;;;;;;;;;;;19.20;44.70;;;;;;487386;243;1333;-44
2021/05/03 01:43:42;;;;;;;;;;;19.10;44.70;;;;;;487442;244;1037;-44
2021/05/03 01:45:42;;;;;;;;;;;19.10;44.80;;;;;;487368;244;2244;-44
2021/05/03 01:47:44;;;;;;;;;;;19.10;44.90;;;;;;487267;244;1132;-44
2021/05/03 01:49:45;;;;;;;;;;;19.00;44.90;;;;;;487283;244;1135;-44
2021/05/03 01:51:46;;;;;;;;;;;19.00;45.00;;;;;;487197;244;1376;-44
2021/05/03 01:53:47;;;;;;;;;;;19.00;45.00;;;;;;487438;244;2150;-44
2021/05/03 01:55:49;;;;;;;;;;;18.90;45.00;;;;;;487188;244;1159;-44
2021/05/03 01:57:50;;;;;;;;;;;18.90;45.10;;;;;;487667;243;1220;-44
2021/05/03 01:59:53;;;;;;;;;;;18.90;45.10;;;;;;487653;244;1094;-44
2021/05/03 02:01:53;;;;;;;;;;;18.90;45.10;;;;;;487284;243;2231;-44
2021/05/03 02:03:54;;;;;;;;;;;18.90;45.20;;;;;;487291;244;1092;-44
2021/05/03 02:05:55;;;;;;;;;;;18.80;45.20;;;;;;487595;241;1147;-44
2021/05/03 02:07:56;;;;;;;;;;;18.80;45.30;;;;;;487272;244;1613;-44
2021/05/03 02:09:58;;;;;;;;;;;18.80;45.30;;;;;;487237;244;1117;-44
2021/05/03 02:11:59;;;;;;;;;;;18.80;45.40;;;;;;487270;243;1313;-44
2021/05/03 02:14:00;;;;;;;;;;;18.70;45.30;;;;;;487258;244;2139;-44
2021/05/03 02:16:01;;;;;;;;;;;18.70;45.40;;;;;;487144;244;1250;-44
2021/05/03 02:18:03;;;;;;;;;;;18.70;45.50;;;;;;487216;243;1218;-44
2021/05/03 02:20:04;;;;;;;;;;;18.70;45.50;;;;;;487240;243;1076;-44
2021/05/03 02:22:05;;;;;;;;;;;18.70;45.40;;;;;;487189;244;1155;-44
2021/05/03 02:24:07;;;;;;;;;;;18.70;45.50;;;;;;487435;243;1119;-44
2021/05/03 02:26:08;;;;;;;;;;;18.70;45.60;;;;;;487503;243;1055;-44
2021/05/03 02:28:09;;;;;;;;;;;18.60;45.60;;;;;;487275;244;1209;-44
2021/05/03 02:30:10;;;;;;;;;;;18.60;45.60;;;;;;487335;244;1126;-44
2021/05/03 02:32:12;;;;;;;;;;;18.60;45.70;;;;;;487464;244;1290;-44
2021/05/03 02:34:13;;;;;;;;;;;18.60;45.70;;;;;;487317;244;2194;-44
2021/05/03 02:36:15;;;;;;;;;;;18.60;45.70;;;;;;487531;244;1101;-44
2021/05/03 02:38:16;;;;;;;;;;;18.60;45.70;;;;;;487310;244;1453;-44
2021/05/03 02:40:17;;;;;;;;;;;18.60;45.70;;;;;;487493;244;1132;-44
2021/05/03 02:42:18;;;;;;;;;;;18.60;45.60;;;;;;487450;243;1074;-44
2021/05/03 02:44:19;;;;;;;;;;;18.50;45.70;;;;;;487231;244;1061;-44
2021/05/03 02:46:21;;;;;;;;;;;18.50;45.70;;;;;;487239;244;1198;-44
2021/05/03 02:48:22;;;;;;;;;;;18.50;45.80;;;;;;487383;243;1091;-44
2021/05/03 02:50:23;;;;;;;;;;;18.50;45.80;;;;;;487453;244;1045;-44
2021/05/03 02:52:24;;;;;;;;;;;18.50;45.80;;;;;;487466;244;2143;-44
2021/05/03 02:54:26;;;;;;;;;;;18.40;45.80;;;;;;487450;244;1049;-44
2021/05/03 02:56:27;;;;;;;;;;;18.40;45.90;;;;;;487719;243;1122;-44
2021/05/03 02:58:28;;;;;;;;;;;18.40;45.90;;;;;;487290;244;1060;-44
2021/05/03 03:00:30;;;;;;;;;;;18.40;45.90;;;;;;487325;244;1063;-44
2021/05/03 03:02:31;;;;;;;;;;;18.40;45.90;;;;;;487244;244;2184;-44
2021/05/03 03:04:32;;;;;;;;;;;18.40;46.00;;;;;;487362;243;1115;-44
2021/05/03 03:06:33;;;;;;;;;;;18.40;45.90;;;;;;487437;244;1347;-44
2021/05/03 03:08:35;;;;;;;;;;;18.40;46.00;;;;;;487213;244;1112;-44
2021/05/03 03:10:36;;;;;;;;;;;18.40;45.90;;;;;;487370;243;1121;-44
2021/05/03 03:12:37;;;;;;;;;;;18.40;45.90;;;;;;487235;243;2202;-44
2021/05/03 03:14:39;;;;;;;;;;;18.30;46.00;;;;;;487347;244;1077;-44
2021/05/03 03:16:40;;;;;;;;;;;18.30;45.90;;;;;;487555;236;1285;-44
2021/05/03 03:18:41;;;;;;;;;;;18.30;46.00;;;;;;487405;243;1109;-44
2021/05/03 03:20:42;;;;;;;;;;;18.30;46.00;;;;;;487631;244;1084;-44
2021/05/03 03:22:44;;;;;;;;;;;18.30;46.10;;;;;;487261;244;1296;-44
2021/05/03 03:24:45;;;;;;;;;;;18.20;46.10;;;;;;487440;243;1093;-44
2021/05/03 03:26:46;;;;;;;;;;;18.20;46.00;;;;;;487480;243;1414;-44
2021/05/03 03:28:47;;;;;;;;;;;18.20;46.10;;;;;;487406;243;1062;-44
2021/05/03 03:30:49;;;;;;;;;;;18.20;46.10;;;;;;487273;244;1365;-44
2021/05/03 03:32:50;;;;;;;;;;;18.20;46.10;;;;;;487243;243;2182;-44
2021/05/03 03:34:51;;;;;;;;;;;18.30;46.00;;;;;;487604;244;1035;-44
2021/05/03 03:36:53;;;;;;;;;;;18.30;46.10;;;;;;487130;244;1520;-44
2021/05/03 03:38:54;;;;;;;;;;;18.20;46.10;;;;;;487219;244;1091;-44
2021/05/03 03:40:55;;;;;;;;;;;18.20;46.20;;;;;;487508;243;1254;-44
2021/05/03 03:42:56;;;;;;;;;;;18.20;46.10;;;;;;487653;243;1077;-44
2021/05/03 03:44:58;;;;;;;;;;;18.20;46.10;;;;;;487587;243;1066;-44
2021/05/03 03:46:59;;;;;;;;;;;18.20;46.20;;;;;;487440;236;1283;-44
2021/05/03 03:49:00;;;;;;;;;;;18.20;46.20;;;;;;487562;243;1064;-44
2021/05/03 03:51:02;;;;;;;;;;;18.10;46.20;;;;;;487255;244;1047;-44
2021/05/03 03:53:03;;;;;;;;;;;18.20;46.00;;;;;;487258;244;2195;-44
2021/05/03 03:55:04;;;;;;;;;;;18.20;46.10;;;;;;487572;244;1077;-44
2021/05/03 03:57:05;;;;;;;;;;;18.10;46.10;;;;;;487197;244;1169;-44
2021/05/03 03:59:09;;;;;;;;;;;18.10;46.20;;;;;;487455;240;1196;-44
2021/05/03 04:01:08;;;;;;;;;;;18.10;46.20;;;;;;487167;243;2381;-44
2021/05/03 04:03:10;;;;;;;;;;;18.20;46.30;;;;;;487234;244;1176;-44
2021/05/03 04:05:18;;;;;;;;;;;18.10;46.30;;;;;;487241;244;1078;-44
2021/05/03 04:07:23;;;;;;;;;;;18.10;46.20;;;;;;486951;244;2088;-44
2021/05/03 04:09:24;;;;;;;;;;;18.10;46.20;;;;;;486774;244;1544;-44
2021/05/03 04:11:30;;;;;;;;;;;18.10;46.30;;;;;;486733;244;2296;-44
2021/05/03 04:23:00;;;;;;;;;;;18.10;46.30;;;;;;487295;244;1113;-44
2021/05/03 04:24:53;;;;;;;;;;;18.10;46.30;;;;;;486629;244;1266;-44
2021/05/03 04:26:52;;;;;;;;;;;18.10;46.30;;;;;;487015;244;1416;-44
2021/05/03 04:28:53;;;;;;;;;;;18.10;46.20;;;;;;487148;244;1092;-44
2021/05/03 04:30:54;;;;;;;;;;;18.10;46.20;;;;;;487520;243;1115;-44
2021/05/03 04:32:56;;;;;;;;;;;18.10;46.30;;;;;;487199;236;1278;-44
2021/05/03 04:34:57;;;;;;;;;;;18.00;46.30;;;;;;487327;243;1092;-44
2021/05/03 04:36:58;;;;;;;;;;;18.00;46.30;;;;;;487209;244;1380;-44
2021/05/03 04:38:59;;;;;;;;;;;18.00;46.30;;;;;;487150;244;1090;-44
2021/05/03 04:41:01;;;;;;;;;;;18.00;46.30;;;;;;487131;244;1064;-44
2021/05/03 04:43:02;;;;;;;;;;;18.10;46.10;;;;;;487183;243;1165;-44
2021/05/03 04:45:03;;;;;;;;;;;18.40;45.60;;;;;;487405;244;1040;-44
2021/05/03 04:47:04;;;;;;;;;;;18.70;44.70;;;;;;487255;243;1242;-44
2021/05/03 04:49:06;;;;;;;;;;;19.00;44.00;;;;;;487222;243;1180;-44
2021/05/03 04:51:07;;;;;;;;;;;19.20;43.50;;;;;;487389;244;1131;-44
2021/05/03 04:53:08;;;;;;;;;;;19.30;43.10;;;;;;487058;244;2143;-44
2021/05/03 04:55:10;;;;;;;;;;;19.50;42.90;;;;;;487004;244;1038;-44
2021/05/03 04:57:11;;;;;;;;;;;19.60;42.70;;;;;;487064;244;1063;-45
2021/05/03 04:59:12;;;;;;;;;;;19.60;42.50;;;;;;487364;243;1110;-44
2021/05/03 05:01:13;;;;;;;;;;;19.70;42.30;;;;;;487085;243;1561;-44
2021/05/03 05:03:15;;;;;;;;;;;19.80;42.20;;;;;;487010;244;1127;-45
2021/05/03 05:05:16;;;;;;;;;;;19.80;42.10;;;;;;487186;243;1187;-44
2021/05/03 05:07:19;;;;;;;;;;;19.90;42.00;;;;;;487179;244;1323;-44
2021/05/03 05:09:19;;;;;;;;;;;19.90;41.90;;;;;;487038;244;1331;-44
2021/05/03 05:11:21;;;;;;;;;;;20.00;41.80;;;;;;486979;244;1334;-44
2021/05/03 05:13:22;;;;;;;;;;;20.00;41.70;;;;;;486952;244;2197;-44
2021/05/03 05:15:23;;;;;;;;;;;20.10;41.70;;;;;;486967;244;1207;-44
2021/05/03 05:17:25;;;;;;;;;;;20.10;41.60;;;;;;486995;244;1134;-45
2021/05/03 05:19:26;;;;;;;;;;;20.10;41.50;;;;;;487036;243;1184;-44
2021/05/03 05:21:28;;;;;;;;;;;20.20;41.50;;;;;;486808;244;1297;-44
2021/05/03 05:23:29;;;;;;;;;;;20.10;41.40;;;;;;486916;244;1202;-44
2021/05/03 05:25:30;;;;;;;;;;;20.20;41.30;;;;;;486888;244;1086;-44
2021/05/03 05:27:31;;;;;;;;;;;20.20;41.30;;;;;;486871;243;1283;-45
2021/05/03 05:29:33;;;;;;;;;;;20.30;41.20;;;;;;486934;244;1081;-45
2021/05/03 05:31:34;;;;;;;;;;;20.30;41.20;;;;;;486864;244;1471;-44
2021/05/03 05:33:35;;;;;;;;;;;20.30;41.20;;;;;;486836;244;2158;-44
2021/05/03 05:35:36;;;;;;;;;;;20.30;41.10;;;;;;486979;243;1199;-44
2021/05/03 05:37:38;;;;;;;;;;;20.40;41.10;;;;;;486923;243;1446;-44
2021/05/03 05:39:39;;;;;;;;;;;20.40;41.10;;;;;;486955;244;1108;-45
2021/05/03 05:41:40;;;;;;;;;;;20.40;41.10;;;;;;487199;242;1125;-44
2021/05/03 05:43:42;;;;;;;;;;;20.40;41.00;;;;;;487044;244;1157;-44
2021/05/03 05:45:43;;;;;;;;;;;20.40;41.00;;;;;;487059;244;1093;-44
2021/05/03 05:47:44;;;;;;;;;;;20.40;40.90;;;;;;486998;244;1180;-44
2021/05/03 05:49:45;;;;;;;;;;;20.50;40.90;;;;;;486904;243;1191;-44
2021/05/03 05:51:47;;;;;;;;;;;20.50;40.80;;;;;;486902;244;1201;-44
2021/05/03 05:53:48;;;;;;;;;;;20.50;40.80;;;;;;486958;243;2183;-45
2021/05/03 05:55:49;;;;;;;;;;;20.50;40.70;;;;;;487025;243;1222;-45
2021/05/03 05:57:51;;;;;;;;;;;20.50;40.70;;;;;;486911;244;1190;-44
2021/05/03 05:59:52;;;;;;;;;;;20.50;40.70;;;;;;486836;244;1136;-44
2021/05/03 06:01:53;;;;;;;;;;;20.60;40.80;;;;;;486852;244;1256;-44
2021/05/03 06:03:54;;;;;;;;;;;20.60;40.80;;;;;;486701;244;1176;-44
2021/05/03 06:05:57;;;;;;;;;;;20.60;40.70;;;;;;486605;244;1248;-45
2021/05/03 06:07:58;;;;;;;;;;;20.60;40.70;;;;;;486879;242;1190;-45
2021/05/03 06:09:59;;;;;;;;;;;20.60;40.60;;;;;;486825;244;1074;-45
2021/05/03 06:12:00;;;;;;;;;;;20.60;40.60;;;;;;486783;244;1446;-44
2021/05/03 06:14:02;;;;;;;;;;;20.60;40.50;;;;;;486849;244;2146;-44
2021/05/03 06:16:03;;;;;;;;;;;20.60;40.50;;;;;;486821;244;1275;-44
2021/05/03 06:18:05;;;;;;;;;;;20.70;40.50;;;;;;486858;243;1206;-44
2021/05/03 06:20:06;;;;;;;;;;;20.70;40.50;;;;;;486827;244;1188;-44
2021/05/03 06:22:07;;;;;;;;;;;20.70;40.50;;;;;;486756;244;1103;-44
2021/05/03 06:24:09;;;;;;;;;;;20.70;40.40;;;;;;486717;244;1093;-44
2021/05/03 06:26:10;;;;;;;;;;;20.80;40.40;;;;;;486680;244;1207;-44
2021/05/03 06:28:11;;;;;;;;;;;20.70;40.40;;;;;;486737;244;1104;-44
2021/05/03 06:30:12;;;;;;;;;;;20.70;40.40;;;;;;486770;244;1208;-44
2021/05/03 06:32:14;;;;;;;;;;;20.80;40.40;;;;;;486460;244;1320;-44
2021/05/03 06:34:15;;;;;;;;;;;20.80;40.40;;;;;;486954;236;2222;-44
2021/05/03 06:36:16;;;;;;;;;;;20.80;40.30;;;;;;486916;244;1246;-44
2021/05/03 06:38:18;;;;;;;;;;;20.80;40.40;;;;;;486857;243;1078;-44
2021/05/03 06:40:19;;;;;;;;;;;20.80;40.30;;;;;;486542;240;1344;-44
2021/05/03 06:42:20;;;;;;;;;;;20.80;40.30;;;;;;486713;244;1299;-44
2021/05/03 06:44:21;;;;;;;;;;;20.80;40.30;;;;;;486868;243;1098;-44
2021/05/03 06:46:23;;;;;;;;;;;20.80;40.30;;;;;;486714;243;1145;-44
2021/05/03 06:48:24;;;;;;;;;;;20.90;40.30;;;;;;486791;244;1084;-44
2021/05/03 06:50:25;;;;;;;;;;;20.80;40.30;;;;;;486822;244;1293;-44
2021/05/03 06:52:27;;;;;;;;;;;20.90;40.30;;;;;;486788;244;1108;-44
2021/05/03 06:54:28;;;;;;;;;;;20.90;40.30;;;;;;486825;244;2159;-44
2021/05/03 06:56:29;;;;;;;;;;;20.90;40.20;;;;;;486732;244;1126;-44
2021/05/03 06:58:30;;;;;;;;;;;20.90;40.20;;;;;;486691;244;1104;-44
2021/05/03 07:00:35;;;;;;;;;;;20.90;40.20;;;;;;486875;244;1333;-44
2021/05/03 07:02:33;;;;;;;;;;;20.90;40.20;;;;;;486547;244;1933;-44
2021/05/03 07:04:34;;;;;;;;;;;20.90;40.20;;;;;;486576;242;1097;-44
2021/05/03 07:06:35;;;;;;;;;;;20.90;40.20;;;;;;486678;244;1302;-44
2021/05/03 07:08:37;;;;;;;;;;;20.90;40.10;;;;;;486483;243;1127;-44
2021/05/03 07:10:42;;;;;;;;;;;20.90;40.10;;;;;;486490;244;1150;-44
2021/05/03 07:12:40;;;;;;;;;;;20.90;40.10;;;;;;487157;243;1401;-44
2021/05/03 07:14:41;;;;;;;;;;;21.00;40.20;;;;;;487434;240;2186;-44
2021/05/03 07:16:42;;;;;;;;;;;21.00;40.20;;;;;;487386;244;1146;-44
2021/05/03 07:18:43;;;;;;;;;;;20.90;40.10;;;;;;487391;243;880;-44
2021/05/03 07:20:45;;;;;;;;;;;21.00;40.10;;;;;;487022;243;1205;-44
2021/05/03 07:22:46;;;;;;;;;;;21.00;40.10;;;;;;487336;244;993;-44
2021/05/03 07:24:47;;;;;;;;;;;21.00;40.00;;;;;;487225;244;873;-44
2021/05/03 07:26:49;;;;;;;;;;;21.00;40.00;;;;;;487276;243;1031;-44
2021/05/03 07:28:50;;;;;;;;;;;21.00;40.10;;;;;;487351;243;863;-44
2021/05/03 07:30:57;;;;;;;;;;;21.00;40.00;;;;;;487321;244;839;-44
2021/05/03 07:32:52;;;;;;;;;;;21.00;40.00;;;;;;486510;244;2090;-44
2021/05/03 07:34:54;;;;;;;;;;;21.00;40.10;;;;;;486898;244;2186;-44
2021/05/03 07:36:55;;;;;;;;;;;21.00;40.00;;;;;;486945;244;850;-44
2021/05/03 07:38:56;;;;;;;;;;;21.10;40.10;;;;;;486699;244;1386;-44
2021/05/03 07:40:58;;;;;;;;;;;21.00;40.00;;;;;;485860;244;1164;-44
2021/05/03 07:42:59;;;;;;;;;;;21.10;40.00;;;;;;486384;244;1126;-44
2021/05/03 07:45:00;;;;;;;;;;;21.10;40.00;;;;;;486496;244;1158;-44
2021/05/03 07:47:02;;;;;;;;;;;21.10;40.00;;;;;;486296;243;1294;-44
2021/05/03 07:49:03;;;;;;;;;;;21.10;40.00;;;;;;486557;244;1173;-44
2021/05/03 07:51:04;;;;;;;;;;;21.10;40.00;;;;;;486389;244;1242;-44
2021/05/03 07:53:06;;;;;;;;;;;21.10;40.00;;;;;;486471;243;1376;-44
2021/05/03 07:55:07;;;;;;;;;;;21.10;39.90;;;;;;486511;244;2139;-44
2021/05/03 07:57:08;;;;;;;;;;;21.10;39.90;;;;;;486411;244;1286;-44
2021/05/03 07:59:10;;;;;;;;;;;21.20;40.00;;;;;;486431;243;1230;-44
2021/05/03 08:01:11;;;;;;;;;;;21.10;39.90;;;;;;486679;242;1379;-44
2021/05/03 08:03:12;;;;;;;;;;;21.10;39.80;;;;;;486494;244;1129;-44
2021/05/03 08:05:14;;;;;;;;;;;21.20;39.90;;;;;;486470;244;1383;-44
2021/05/03 08:07:15;;;;;;;;;;;21.20;39.90;;;;;;486523;244;1515;-44
2021/05/03 08:09:16;;;;;;;;;;;21.20;39.90;;;;;;486506;243;1099;-44
2021/05/03 08:11:19;;;;;;;;;;;21.20;39.90;;;;;;486539;243;1164;-44
2021/05/03 08:13:19;;;;;;;;;;;21.10;39.90;;;;;;486657;244;2315;-44
2021/05/03 08:15:23;;;;;;;;;;;21.20;39.80;;;;;;486672;243;2195;-44
2021/05/03 08:17:22;;;;;;;;;;;21.20;39.80;;;;;;486575;244;2438;-44
2021/05/03 08:19:23;;;;;;;;;;;21.20;39.80;;;;;;486763;243;1144;-44
2021/05/03 08:21:25;;;;;;;;;;;21.20;39.80;;;;;;486514;244;1183;-44
2021/05/03 08:23:26;;;;;;;;;;;21.20;39.80;;;;;;486670;244;1103;-44
2021/05/03 08:25:27;;;;;;;;;;;21.20;39.90;;;;;;486612;244;1227;-44
2021/05/03 08:27:28;;;;;;;;;;;21.20;39.90;;;;;;486567;244;1131;-44
2021/05/03 08:29:30;;;;;;;;;;;21.20;39.90;;;;;;486535;243;1156;-44
2021/05/03 08:31:31;;;;;;;;;;;21.20;39.80;;;;;;486480;243;1114;-44
2021/05/03 08:33:32;;;;;;;;;;;21.20;39.80;;;;;;486551;243;1216;-44
2021/05/03 08:35:33;;;;;;;;;;;21.20;39.80;;;;;;486626;244;2139;-44
2021/05/03 08:37:35;;;;;;;;;;;21.20;39.80;;;;;;486572;244;1207;-44
2021/05/03 08:39:36;;;;;;;;;;;21.20;39.80;;;;;;486749;244;1082;-44
2021/05/03 08:41:37;;;;;;;;;;;21.20;39.80;;;;;;486588;244;1188;-44
2021/05/03 08:43:41;;;;;;;;;;;21.20;39.80;;;;;;486825;244;1187;-43
2021/05/03 08:45:41;;;;;;;;;;;21.20;39.70;;;;;;486596;244;2235;-44
2021/05/03 08:47:53;;;;;;;;;;;21.20;39.70;;;;;;486568;244;2513;-44
2021/05/03 08:49:51;;;;;;;;;;;21.20;39.80;;;;;;485941;244;2114;-44
2021/05/03 08:51:51;;;;;;;;;;;21.30;39.70;;;;;;485662;244;2564;-44
2021/05/03 08:53:56;;;;;;;;;;;21.30;39.70;;;;;;486390;244;2359;-44
2021/05/03 08:55:52;;;;;;;;;;;21.20;39.70;;;;;;485576;243;2325;-44
2021/05/03 08:57:53;;;;;;;;;;;21.30;39.70;;;;;;486695;244;1197;-44
2021/05/03 08:59:55;;;;;;;;;;;21.30;39.70;;;;;;486928;244;1364;-44
2021/05/03 09:01:56;;;;;;;;;;;21.20;39.70;;;;;;486715;244;1181;-44
2021/05/03 09:03:57;;;;;;;;;;;21.30;39.70;;;;;;487350;244;871;-43
2021/05/03 09:05:58;;;;;;;;;;;21.30;39.70;;;;;;487269;244;1173;-44
2021/05/03 09:08:00;;;;;;;;;;;21.30;39.60;;;;;;486787;243;1111;-44
2021/05/03 09:10:01;;;;;;;;;;;21.30;39.60;;;;;;486632;243;1196;-44
2021/05/03 09:12:02;;;;;;;;;;;21.30;39.70;;;;;;486794;243;1320;-44
2021/05/03 09:14:03;;;;;;;;;;;21.30;39.60;;;;;;487251;244;1399;-44
2021/05/03 09:16:05;;;;;;;;;;;21.30;39.60;;;;;;486929;240;2195;-44
2021/05/03 09:18:06;;;;;;;;;;;21.30;39.60;;;;;;485905;244;1106;-44
2021/05/03 09:20:08;;;;;;;;;;;21.30;39.60;;;;;;486500;244;1120;-44
2021/05/03 09:22:09;;;;;;;;;;;21.30;39.60;;;;;;486664;244;1297;-44
2021/05/03 09:24:12;;;;;;;;;;;21.30;39.60;;;;;;486514;243;1228;-44
2021/05/03 09:26:12;;;;;;;;;;;21.40;39.60;;;;;;486747;244;2086;-44
2021/05/03 09:28:13;;;;;;;;;;;21.40;39.60;;;;;;486678;244;1144;-44
2021/05/03 09:30:15;;;;;;;;;;;21.30;39.50;;;;;;486835;244;1164;-44
2021/05/03 09:32:16;;;;;;;;;;;21.30;39.60;;;;;;486650;244;1192;-44
2021/05/03 09:34:17;;;;;;;;;;;21.40;39.60;;;;;;486681;244;1564;-44
2021/05/03 09:36:22;;;;;;;;;;;21.40;39.60;;;;;;486621;244;2190;-44
2021/05/03 09:38:20;;;;;;;;;;;21.40;39.60;;;;;;486398;243;2342;-44
2021/05/03 09:40:22;;;;;;;;;;;21.40;39.50;;;;;;486465;244;1126;-44
2021/05/03 09:42:23;;;;;;;;;;;21.40;39.60;;;;;;486333;244;1885;-44
2021/05/03 09:44:24;;;;;;;;;;;21.40;39.60;;;;;;486487;243;1092;-44
2021/05/03 09:46:25;;;;;;;;;;;21.40;39.50;;;;;;486678;244;1274;-44
2021/05/03 09:48:26;;;;;;;;;;;21.40;39.40;;;;;;486797;244;1091;-44
2021/05/03 09:50:28;;;;;;;;;;;20.90;40.30;;;;;;486624;244;1302;-43
2021/05/03 09:52:29;;;;;;;;;;;20.30;41.50;;;;;;486652;244;1947;-44
2021/05/03 09:54:30;;;;;;;;;;;20.00;42.40;;;;;;486415;244;1951;-44
2021/05/03 09:56:32;;;;;;;;;;;19.70;43.10;;;;;;486668;243;2199;-44
2021/05/03 09:58:33;;;;;;;;;;;19.50;43.50;;;;;;486547;244;1167;-44
2021/05/03 10:00:34;;;;;;;;;;;19.30;43.90;;;;;;486608;241;1320;-44
2021/05/03 10:02:36;;;;;;;;;;;19.20;44.20;;;;;;486789;244;1157;-43
2021/05/03 10:04:37;;;;;;;;;;;19.10;44.40;;;;;;486650;243;2241;-44
2021/05/03 10:06:38;;;;;;;;;;;19.00;44.60;;;;;;486744;244;2168;-44
2021/05/03 10:08:40;;;;;;;;;;;18.90;44.80;;;;;;486824;243;1171;-44
2021/05/03 10:10:46;;;;;;;;;;;18.80;45.00;;;;;;486585;244;1199;-44
2021/05/03 10:12:42;;;;;;;;;;;18.80;45.20;;;;;;486163;244;1713;-44
2021/05/03 10:14:43;;;;;;;;;;;18.70;45.30;;;;;;486511;244;1467;-44
2021/05/03 10:16:45;;;;;;;;;;;18.70;45.30;;;;;;486299;244;2186;-44
2021/05/03 10:18:46;;;;;;;;;;;18.70;45.40;;;;;;486625;244;1317;-44
2021/05/03 10:20:47;;;;;;;;;;;18.60;45.50;;;;;;486436;244;1240;-44
2021/05/03 10:22:49;;;;;;;;;;;18.50;45.60;;;;;;486404;244;1381;-44
2021/05/03 10:24:50;;;;;;;;;;;18.50;45.60;;;;;;486733;244;2049;-44
2021/05/03 10:26:51;;;;;;;;;;;18.50;45.70;;;;;;486578;244;1211;-44
2021/05/03 10:28:53;;;;;;;;;;;18.40;45.70;;;;;;486658;244;1155;-44
2021/05/03 10:30:54;;;;;;;;;;;18.40;45.90;;;;;;486726;242;1110;-44
2021/05/03 10:32:55;;;;;;;;;;;18.30;45.90;;;;;;486551;244;1158;-44
2021/05/03 10:34:59;;;;;;;;;;;18.30;46.00;;;;;;486671;244;1098;-44
2021/05/03 10:36:58;;;;;;;;;;;18.30;45.90;;;;;;486390;244;2213;-44
2021/05/03 10:38:59;;;;;;;;;;;18.30;46.00;;;;;;486653;243;1200;-43
2021/05/03 10:41:00;;;;;;;;;;;18.30;46.10;;;;;;486599;244;1443;-44
2021/05/03 10:43:02;;;;;;;;;;;18.30;46.10;;;;;;486836;244;1088;-44
2021/05/03 10:45:03;;;;;;;;;;;18.20;46.10;;;;;;486649;243;792;-44
2021/05/03 10:47:08;;;;;;;;;;;18.20;46.10;;;;;;486404;244;1213;-44
2021/05/03 10:49:09;;;;;;;;;;;18.20;46.10;;;;;;486446;244;2154;-43
2021/05/03 10:51:10;;;;;;;;;;;18.20;46.20;;;;;;486224;244;2205;-43
2021/05/03 10:53:08;;;;;;;;;;;18.20;46.20;;;;;;486574;243;1563;-43
2021/05/03 10:55:10;;;;;;;;;;;18.20;46.20;;;;;;486483;244;2186;-43
2021/05/03 10:57:11;;;;;;;;;;;18.10;46.10;;;;;;486400;244;1567;-44
2021/05/03 10:59:13;;;;;;;;;;;18.10;46.20;;;;;;486604;243;1139;-44
2021/05/03 11:01:14;;;;;;;;;;;18.10;46.30;;;;;;486419;240;1541;-44
2021/05/03 11:03:15;;;;;;;;;;;18.00;46.40;;;;;;486469;244;1183;-44
2021/05/03 11:05:18;;;;;;;;;;;18.00;46.40;;;;;;486596;244;1104;-44
2021/05/03 11:07:18;;;;;;;;;;;18.10;46.30;;;;;;486533;243;1547;-43
2021/05/03 11:09:19;;;;;;;;;;;18.00;46.20;;;;;;486638;244;1187;-44
2021/05/03 11:11:24;;;;;;;;;;;18.00;46.30;;;;;;486621;244;1207;-44
2021/05/03 11:13:22;;;;;;;;;;;18.00;46.40;;;;;;486400;244;2315;-44
2021/05/03 11:15:25;;;;;;;;;;;17.90;46.30;;;;;;486527;243;2199;-44
2021/05/03 11:17:25;;;;;;;;;;;18.00;46.30;;;;;;486517;243;1804;-44
2021/05/03 11:19:26;;;;;;;;;;;18.00;46.40;;;;;;486767;244;1162;-44
2021/05/03 11:21:30;;;;;;;;;;;17.90;46.30;;;;;;486618;243;1254;-44
2021/05/03 11:23:30;;;;;;;;;;;17.90;46.30;;;;;;486316;244;1353;-44
2021/05/03 11:25:30;;;;;;;;;;;17.90;46.30;;;;;;486261;244;2286;-44
2021/05/03 11:27:33;;;;;;;;;;;17.90;46.40;;;;;;486707;244;1209;-44
2021/05/03 11:29:40;;;;;;;;;;;18.00;46.30;;;;;;486651;244;1442;-44
2021/05/03 11:31:39;;;;;;;;;;;17.90;46.30;;;;;;486346;244;2252;-43
2021/05/03 11:33:43;;;;;;;;;;;17.90;46.20;;;;;;486616;244;1464;-44
2021/05/03 11:35:49;;;;;;;;;;;17.90;46.20;;;;;;486295;243;2281;-44
2021/05/03 11:37:45;;;;;;;;;;;17.90;46.40;;;;;;486131;244;2200;-43
2021/05/03 11:39:55;;;;;;;;;;;17.80;46.40;;;;;;486559;243;1334;-44
2021/05/03 11:42:02;;;;;;;;;;;17.80;46.50;;;;;;486300;244;2236;-43
2021/05/03 11:44:11;;;;;;;;;;;17.80;46.60;;;;;;486549;244;1522;-43
2021/05/03 11:46:02;;;;;;;;;;;17.80;46.50;;;;;;486058;244;2243;-44
2021/05/03 11:48:04;;;;;;;;;;;17.80;46.40;;;;;;486708;243;1143;-44
2021/05/03 11:50:05;;;;;;;;;;;17.80;46.40;;;;;;486688;244;1106;-44
2021/05/03 11:52:06;;;;;;;;;;;17.80;46.40;;;;;;486743;243;1229;-44
2021/05/03 11:54:08;;;;;;;;;;;17.80;46.40;;;;;;486700;244;1175;-44
2021/05/03 11:56:09;;;;;;;;;;;17.80;46.40;;;;;;486496;242;2426;-44
2021/05/03 11:58:10;;;;;;;;;;;17.80;46.40;;;;;;486680;243;1168;-44
2021/05/03 12:00:11;;;;;;;;;;;17.70;46.50;;;;;;486624;243;1053;-44
2021/05/03 12:02:13;;;;;;;;;;;17.70;46.50;;;;;;486716;243;1201;-44
2021/05/03 12:04:14;;;;;;;;;;;17.70;46.40;;;;;;486574;244;1117;-44
2021/05/03 12:06:15;;;;;;;;;;;17.70;46.40;;;;;;486770;243;1084;-43